AUR51H EGHI-EGJB
Flight info
| Callsign | AUR51H |
|---|---|
| Flight time | 0h 30m |
| Altitude | 12000 |
| Route | SAM Q41 ORTAC |
| Aircraft | AT76/M-SDFGIRY/S |
Departure
| Time | 2026-05-04 07:13 |
|---|---|
| Airport | Southampton Airport (EGHI) |
Arrival
| Time | 2026-05-04 07:43 |
|---|---|
| Airport | Guernsey Airport (EGJB) |
| Time | Latitude | Longitude | Altitude | Speed | Heading |
|---|---|---|---|---|---|
| 2026-05-04 06:31 | 50.95000 | -1.36238 | 36 ft | 0 kts | 19° |
| 2026-05-04 07:04 | 50.94988 | -1.36245 | 36 ft | 4 kts | 20° |
| 2026-05-04 07:04 | 50.94963 | -1.36261 | 36 ft | 4 kts | 32° |
| 2026-05-04 07:04 | 50.94948 | -1.36284 | 36 ft | 4 kts | 94° |
| 2026-05-04 07:05 | 50.94948 | -1.36293 | 36 ft | 0 kts | 109° |
| 2026-05-04 07:08 | 50.95048 | -1.35912 | 36 ft | 10 kts | 54° |
| 2026-05-04 07:09 | 50.95038 | -1.35810 | 36 ft | 10 kts | 110° |
| 2026-05-04 07:09 | 50.95023 | -1.35701 | 36 ft | 11 kts | 71° |
| 2026-05-04 07:09 | 50.95097 | -1.35640 | 36 ft | 12 kts | 19° |
| 2026-05-04 07:09 | 50.95175 | -1.35597 | 37 ft | 12 kts | 19° |
| 2026-05-04 07:10 | 50.95257 | -1.35552 | 36 ft | 13 kts | 19° |
| 2026-05-04 07:10 | 50.95351 | -1.35499 | 37 ft | 16 kts | 19° |
| 2026-05-04 07:12 | 50.95845 | -1.35224 | 40 ft | 11 kts | 199° |
| 2026-05-04 07:12 | 50.95536 | -1.35395 | 40 ft | 80 kts | 199° |
| 2026-05-04 07:12 | 50.94846 | -1.35780 | 109 ft | 121 kts | 201° |
| 2026-05-04 07:12 | 50.94050 | -1.36236 | 585 ft | 126 kts | 201° |
| 2026-05-04 07:13 | 50.93301 | -1.36932 | 1177 ft | 126 kts | 219° |
| 2026-05-04 07:13 | 50.92613 | -1.37802 | 1767 ft | 126 kts | 219° |
| 2026-05-04 07:13 | 50.91880 | -1.38733 | 1927 ft | 149 kts | 220° |
| 2026-05-04 07:14 | 50.87454 | -1.41935 | 3188 ft | 181 kts | 201° |
| 2026-05-04 07:14 | 50.86283 | -1.42660 | 3628 ft | 180 kts | 201° |
| 2026-05-04 07:15 | 50.85115 | -1.43371 | 4076 ft | 180 kts | 201° |
| 2026-05-04 07:15 | 50.83947 | -1.44079 | 4521 ft | 180 kts | 201° |
| 2026-05-04 07:15 | 50.82838 | -1.44759 | 4939 ft | 180 kts | 201° |
| 2026-05-04 07:15 | 50.81670 | -1.45478 | 5334 ft | 181 kts | 201° |
| 2026-05-04 07:16 | 50.80498 | -1.46202 | 5753 ft | 181 kts | 201° |
| 2026-05-04 07:16 | 50.79318 | -1.46933 | 6165 ft | 182 kts | 201° |
| 2026-05-04 07:16 | 50.78138 | -1.47668 | 6561 ft | 182 kts | 201° |
| 2026-05-04 07:16 | 50.76959 | -1.48395 | 6952 ft | 182 kts | 201° |
| 2026-05-04 07:17 | 50.75774 | -1.49126 | 7339 ft | 183 kts | 201° |
| 2026-05-04 07:17 | 50.74591 | -1.49854 | 7722 ft | 182 kts | 201° |
| 2026-05-04 07:17 | 50.73409 | -1.50583 | 8116 ft | 183 kts | 201° |
| 2026-05-04 07:17 | 50.72226 | -1.51312 | 8483 ft | 183 kts | 201° |
| 2026-05-04 07:18 | 50.71041 | -1.52041 | 8855 ft | 183 kts | 201° |
| 2026-05-04 07:18 | 50.69857 | -1.52772 | 9223 ft | 183 kts | 201° |
| 2026-05-04 07:18 | 50.68676 | -1.53500 | 9589 ft | 183 kts | 201° |
| 2026-05-04 07:18 | 50.67482 | -1.54236 | 9851 ft | 188 kts | 201° |
| 2026-05-04 07:19 | 50.66226 | -1.55036 | 9934 ft | 201 kts | 203° |
| 2026-05-04 07:19 | 50.64893 | -1.55936 | 9966 ft | 215 kts | 204° |
| 2026-05-04 07:19 | 50.63493 | -1.56899 | 9975 ft | 225 kts | 204° |
| 2026-05-04 07:19 | 50.62036 | -1.57915 | 9979 ft | 233 kts | 204° |
| 2026-05-04 07:20 | 50.60534 | -1.58956 | 9984 ft | 239 kts | 204° |
| 2026-05-04 07:20 | 50.58998 | -1.60018 | 9985 ft | 243 kts | 204° |
| 2026-05-04 07:20 | 50.57438 | -1.61095 | 9985 ft | 247 kts | 204° |
| 2026-05-04 07:20 | 50.55858 | -1.62188 | 9986 ft | 249 kts | 204° |
| 2026-05-04 07:22 | 50.44604 | -1.69965 | 9990 ft | 255 kts | 203° |
| 2026-05-04 07:22 | 50.42977 | -1.71084 | 9990 ft | 255 kts | 203° |
| 2026-05-04 07:23 | 50.41352 | -1.72201 | 9989 ft | 255 kts | 204° |
| 2026-05-04 07:23 | 50.39725 | -1.73329 | 9991 ft | 256 kts | 203° |
| 2026-05-04 07:23 | 50.38095 | -1.74451 | 9990 ft | 256 kts | 203° |
| 2026-05-04 07:23 | 50.36460 | -1.75570 | 9991 ft | 256 kts | 203° |
| 2026-05-04 07:24 | 50.34826 | -1.76690 | 9994 ft | 257 kts | 203° |
| 2026-05-04 07:24 | 50.33188 | -1.77813 | 9993 ft | 257 kts | 203° |
| 2026-05-04 07:24 | 50.31553 | -1.78932 | 9993 ft | 257 kts | 203° |
| 2026-05-04 07:24 | 50.29911 | -1.80054 | 9993 ft | 257 kts | 203° |
| 2026-05-04 07:25 | 50.28272 | -1.81175 | 9991 ft | 257 kts | 203° |
| 2026-05-04 07:26 | 50.16814 | -1.89000 | 9990 ft | 256 kts | 202° |
| 2026-05-04 07:27 | 50.15180 | -1.90111 | 9990 ft | 256 kts | 202° |
| 2026-05-04 07:27 | 50.13542 | -1.91220 | 9990 ft | 257 kts | 202° |
| 2026-05-04 07:27 | 50.11907 | -1.92332 | 9993 ft | 257 kts | 202° |
| 2026-05-04 07:27 | 50.10267 | -1.93444 | 9993 ft | 257 kts | 202° |
| 2026-05-04 07:28 | 50.08628 | -1.94553 | 9993 ft | 257 kts | 202° |
| 2026-05-04 07:28 | 50.06990 | -1.95665 | 9993 ft | 257 kts | 202° |
| 2026-05-04 07:28 | 50.05350 | -1.96775 | 9993 ft | 257 kts | 202° |
| 2026-05-04 07:28 | 50.03710 | -1.97882 | 9993 ft | 257 kts | 202° |
| 2026-05-04 07:29 | 50.02072 | -1.98992 | 9993 ft | 257 kts | 202° |
| 2026-05-04 07:29 | 50.00430 | -2.00098 | 9993 ft | 257 kts | 202° |
| 2026-05-04 07:29 | 49.98792 | -2.01210 | 9996 ft | 257 kts | 203° |
| 2026-05-04 07:29 | 49.97162 | -2.02353 | 9996 ft | 257 kts | 203° |
| 2026-05-04 07:30 | 49.95528 | -2.03487 | 9995 ft | 257 kts | 203° |
| 2026-05-04 07:30 | 49.93892 | -2.04618 | 9995 ft | 257 kts | 202° |
| 2026-05-04 07:30 | 49.92254 | -2.05747 | 9995 ft | 258 kts | 202° |
| 2026-05-04 07:30 | 49.90614 | -2.06874 | 9994 ft | 258 kts | 202° |
| 2026-05-04 07:31 | 49.88977 | -2.08006 | 9994 ft | 258 kts | 202° |
| 2026-05-04 07:31 | 49.87335 | -2.09137 | 9994 ft | 258 kts | 202° |
| 2026-05-04 07:33 | 49.75856 | -2.17019 | 9993 ft | 258 kts | 202° |
| 2026-05-04 07:33 | 49.74222 | -2.18139 | 9964 ft | 256 kts | 202° |
| 2026-05-04 07:33 | 49.72614 | -2.19247 | 9745 ft | 252 kts | 202° |
| 2026-05-04 07:33 | 49.71021 | -2.20340 | 9429 ft | 248 kts | 202° |
| 2026-05-04 07:34 | 49.69980 | -2.21050 | 9224 ft | 245 kts | 202° |
| 2026-05-04 07:34 | 49.68442 | -2.22095 | 8902 ft | 239 kts | 202° |
| 2026-05-04 07:34 | 49.66934 | -2.23120 | 8589 ft | 234 kts | 203° |
| 2026-05-04 07:34 | 49.65453 | -2.24127 | 8275 ft | 231 kts | 202° |
| 2026-05-04 07:35 | 49.63995 | -2.25119 | 7976 ft | 228 kts | 203° |
| 2026-05-04 07:35 | 49.62554 | -2.26100 | 7664 ft | 225 kts | 203° |
| 2026-05-04 07:35 | 49.61128 | -2.27074 | 7373 ft | 223 kts | 203° |
| 2026-05-04 07:35 | 49.59709 | -2.28037 | 7074 ft | 222 kts | 203° |
| 2026-05-04 07:36 | 49.58303 | -2.28995 | 6776 ft | 221 kts | 204° |
| 2026-05-04 07:36 | 49.56904 | -2.29946 | 6484 ft | 219 kts | 204° |
| 2026-05-04 07:38 | 49.47091 | -2.35762 | 4321 ft | 210 kts | 181° |
| 2026-05-04 07:38 | 49.45698 | -2.35765 | 4004 ft | 192 kts | 180° |
| 2026-05-04 07:38 | 49.44434 | -2.35860 | 3697 ft | 171 kts | 195° |
| 2026-05-04 07:38 | 49.43600 | -2.36999 | 3385 ft | 163 kts | 246° |
| 2026-05-04 07:39 | 49.43583 | -2.38738 | 3164 ft | 166 kts | 278° |
| 2026-05-04 07:39 | 49.43758 | -2.40514 | 2829 ft | 169 kts | 275° |
| 2026-05-04 07:39 | 49.43857 | -2.42309 | 2572 ft | 168 kts | 273° |
| 2026-05-04 07:39 | 49.43925 | -2.44079 | 2334 ft | 166 kts | 272° |
| 2026-05-04 07:40 | 49.43914 | -2.45852 | 2110 ft | 164 kts | 265° |
| 2026-05-04 07:40 | 49.43835 | -2.47573 | 1893 ft | 156 kts | 266° |
| 2026-05-04 07:40 | 49.43785 | -2.49165 | 1695 ft | 140 kts | 269° |
| 2026-05-04 07:40 | 49.43755 | -2.50577 | 1508 ft | 129 kts | 269° |
| 2026-05-04 07:41 | 49.43722 | -2.51924 | 1333 ft | 124 kts | 269° |
| 2026-05-04 07:41 | 49.43686 | -2.53212 | 1217 ft | 118 kts | 269° |
| 2026-05-04 07:41 | 49.43654 | -2.54469 | 1050 ft | 118 kts | 270° |
| 2026-05-04 07:41 | 49.43615 | -2.55722 | 851 ft | 117 kts | 270° |
| 2026-05-04 07:42 | 49.43579 | -2.56979 | 690 ft | 119 kts | 270° |
| 2026-05-04 07:42 | 49.43545 | -2.58228 | 508 ft | 116 kts | 270° |
| 2026-05-04 07:42 | 49.43516 | -2.59444 | 350 ft | 110 kts | 270° |
| 2026-05-04 07:42 | 49.43490 | -2.60473 | 306 ft | 69 kts | 268° |
| 2026-05-04 07:43 | 49.43474 | -2.61046 | 308 ft | 40 kts | 267° |
| 2026-05-04 07:43 | 49.43464 | -2.61324 | 312 ft | 15 kts | 252° |
| 2026-05-04 07:43 | 49.43401 | -2.61323 | 312 ft | 11 kts | 134° |
| 2026-05-04 07:43 | 49.43359 | -2.61211 | 309 ft | 13 kts | 90° |
| 2026-05-04 07:44 | 49.43362 | -2.61079 | 307 ft | 12 kts | 88° |
| 2026-05-04 07:44 | 49.43365 | -2.60952 | 307 ft | 13 kts | 91° |
| 2026-05-04 07:44 | 49.43349 | -2.60797 | 298 ft | 17 kts | 100° |
| 2026-05-04 07:44 | 49.43328 | -2.60619 | 292 ft | 17 kts | 99° |
| 2026-05-04 07:45 | 49.43328 | -2.60450 | 289 ft | 15 kts | 87° |
| 2026-05-04 07:45 | 49.43332 | -2.60312 | 291 ft | 12 kts | 87° |
| 2026-05-04 07:45 | 49.43335 | -2.60208 | 296 ft | 8 kts | 88° |
| 2026-05-04 07:45 | 49.43337 | -2.60116 | 301 ft | 10 kts | 88° |
| 2026-05-04 07:46 | 49.43340 | -2.60014 | 311 ft | 10 kts | 88° |
| 2026-05-04 07:46 | 49.43343 | -2.59909 | 316 ft | 11 kts | 87° |
| 2026-05-04 07:46 | 49.43347 | -2.59786 | 324 ft | 12 kts | 82° |
| 2026-05-04 07:46 | 49.43342 | -2.59691 | 324 ft | 8 kts | 159° |
| 2026-05-04 07:47 | 49.43288 | -2.59686 | 325 ft | 8 kts | 178° |
| 2026-05-04 07:47 | 49.43256 | -2.59684 | 324 ft | 1 kts | 178° |
| 2026-05-04 07:47 | 49.43255 | -2.59684 | 325 ft | 0 kts | 178° |